»·PEaware :: SWA250 KDAL-KTPA

SWA250 :: KDAL-KTPA

FLIGHT INFORMATION

Flight Status: Arrived
Operator:
Southwest Airlines
More flights by this operator :: More flights under this callsign
Pilot: Andrew J. (13363)
Aircraft: BOEING 737-800
(B738)
More flights by this aircraft type
Origin: KDAL Dallas Love
United States
Destination: KTPA Tampa Intl
United States
More flights between these airports :: More routes between these airports
Route: LNDRE5 ZALEA MCB J50 CEW J2 DEFUN HEVVN FOOXX5
File this flight plan on PilotEdge
Remarks:
Altitude:
(Current/Filed)
35,000ft
Speed:
(Current/Filed)
472kts
Departed: 10-Sep-20 11:37 PM
Arrived: 11-Sep-20 12:26 AM
Distance/Time
Traveled:
795nm/0:49
Distance/Time
To Go:
Arrived

Flight Plot

Page will automatically refresh every two minutes.

Flight plan parsing failed; only flown route is shown


Map Options




Map Legend


Flown Route
Filed Route
Departure Airport
Arrival Airport
Navaid (VOR, NDB)
Fix

Horizontal Profiles

Position Reports

Time Latitude Longitude Heading Altitude Ground
Speed
10-Sep-20 23:35 30.934649 -87.287937 113 37100ft 444kts
10-Sep-20 23:36 30.890737 -87.153304 112 37102ft 451kts
10-Sep-20 23:37 30.845706 -87.015305 112 37099ft 457kts
10-Sep-20 23:38 30.800389 -86.876454 111 37100ft 462kts
10-Sep-20 23:39 30.754590 -86.736164 111 37109ft 462kts
10-Sep-20 23:40 30.708938 -86.596385 111 37118ft 462kts
10-Sep-20 23:41 30.663421 -86.457080 111 37112ft 462kts
10-Sep-20 23:42 30.617699 -86.317222 111 37106ft 462kts
10-Sep-20 23:43 30.572020 -86.177607 111 37095ft 462kts
10-Sep-20 23:44 30.526542 -86.038668 111 37091ft 462kts
10-Sep-20 23:45 30.480913 -85.899325 111 37091ft 462kts
10-Sep-20 23:46 30.435286 -85.760051 111 37091ft 462kts
10-Sep-20 23:47 30.389609 -85.620689 111 37089ft 462kts
10-Sep-20 23:48 30.343988 -85.481566 111 37084ft 462kts
10-Sep-20 23:49 30.282543 -85.352240 123 37083ft 461kts
10-Sep-20 23:50 30.211899 -85.228793 124 37082ft 460kts
10-Sep-20 23:51 30.141199 -85.105368 123 37085ft 461kts
10-Sep-20 23:52 30.070134 -84.981395 123 37090ft 464kts
10-Sep-20 23:53 29.998728 -84.856917 123 37091ft 465kts
10-Sep-20 23:54 29.927335 -84.732558 123 37091ft 465kts
10-Sep-20 23:55 29.855913 -84.608237 123 37091ft 465kts
10-Sep-20 23:56 29.784722 -84.484410 122 37091ft 465kts
10-Sep-20 23:57 29.713387 -84.360426 122 37091ft 465kts
10-Sep-20 23:58 29.641928 -84.236331 123 37091ft 465kts
10-Sep-20 23:59 29.573226 -84.117114 123 37091ft 465kts
11-Sep-20 00:00 29.498616 -83.987740 123 37086ft 465kts
11-Sep-20 00:01 29.427272 -83.864128 123 37082ft 465kts
11-Sep-20 00:02 29.355834 -83.740451 123 37082ft 465kts
11-Sep-20 00:03 29.284402 -83.616901 123 37082ft 465kts
11-Sep-20 00:04 29.199308 -83.507984 143 35228ft 462kts
11-Sep-20 00:05 29.090691 -83.429450 148 32007ft 460kts
11-Sep-20 00:06 28.981088 -83.357625 149 29223ft 446kts
11-Sep-20 00:07 28.874772 -83.289599 149 26729ft 430kts
11-Sep-20 00:08 28.772415 -83.224675 149 24317ft 413kts
11-Sep-20 00:09 28.673687 -83.162332 149 21973ft 398kts
11-Sep-20 00:10 28.578831 -83.102603 149 19685ft 383kts
11-Sep-20 00:11 28.487484 -83.045300 149 17457ft 369kts
11-Sep-20 00:12 28.399369 -82.990176 149 15273ft 356kts
11-Sep-20 00:13 28.314091 -82.937012 148 13124ft 343kts
11-Sep-20 00:14 28.231427 -82.885419 149 10916ft 335kts
11-Sep-20 00:15 28.155379 -82.838047 148 10159ft 292kts
11-Sep-20 00:16 28.088899 -82.796674 148 9609ft 260kts
11-Sep-20 00:17 28.024874 -82.756855 148 8315ft 263kts
11-Sep-20 00:18 27.959476 -82.719583 158 7070ft 261kts
11-Sep-20 00:19 27.894930 -82.694099 147 5746ft 230kts
11-Sep-20 00:20 27.853782 -82.648959 108 4518ft 204kts
11-Sep-20 00:21 27.853926 -82.588578 65 3207ft 193kts
11-Sep-20 00:22 27.885666 -82.546928 347 1577ft 183kts
11-Sep-20 00:23 27.932875 -82.547111 13 663ft 164kts
11-Sep-20 00:24 27.972838 -82.542050 2 15ft 110kts
11-Sep-20 00:25 27.983006 -82.540416 48 23ft 14kts
11-Sep-20 00:26 27.984400 -82.538015 47 23ft 0kts
11-Sep-20 00:27 27.984550 -82.537839 45 23ft 6kts
11-Sep-20 00:28 27.984169 -82.533674 183 26ft 12kts
11-Sep-20 00:29 27.982511 -82.533078 91 26ft 0kts
11-Sep-20 00:30 27.982511 -82.533075 91 26ft 0kts
11-Sep-20 00:31 27.982511 -82.533075 91 26ft 0kts

Navigation Log

Ident Type
Flight plan parsing failed, navigation log unavailable